sensor_id;sensor_type;location;lat;lon;timestamp;pressure;altitude;pressure_sealevel;temperature;humidity
25498;BME280;13406;53.380;7.226;2024-01-10T00:00:12;103253.88;;;-3.93;100.00
25498;BME280;13406;53.380;7.226;2024-01-10T00:02:38;103214.31;;;-4.15;100.00
25498;BME280;13406;53.380;7.226;2024-01-10T00:05:04;103154.31;;;-4.24;100.00
25498;BME280;13406;53.380;7.226;2024-01-10T00:07:29;103192.91;;;-4.29;100.00
25498;BME280;13406;53.380;7.226;2024-01-10T00:09:55;103169.41;;;-4.33;100.00
25498;BME280;13406;53.380;7.226;2024-01-10T00:12:21;103221.97;;;-3.79;100.00
25498;BME280;13406;53.380;7.226;2024-01-10T00:14:46;103241.66;;;-3.94;100.00
25498;BME280;13406;53.380;7.226;2024-01-10T00:17:12;103196.41;;;-4.01;100.00
25498;BME280;13406;53.380;7.226;2024-01-10T00:19:37;103175.03;;;-4.17;100.00
25498;BME280;13406;53.380;7.226;2024-01-10T00:22:03;103167.06;;;-4.42;100.00
25498;BME280;13406;53.380;7.226;2024-01-10T00:24:28;103133.31;;;-4.52;100.00
25498;BME280;13406;53.380;7.226;2024-01-10T00:26:54;103207.72;;;-4.28;100.00
25498;BME280;13406;53.380;7.226;2024-01-10T00:29:20;103253.88;;;-3.93;100.00
25498;BME280;13406;53.380;7.226;2024-01-10T00:31:46;103179.16;;;-4.38;100.00
25498;BME280;13406;53.380;7.226;2024-01-10T00:34:11;103135.63;;;-4.42;100.00
25498;BME280;13406;53.380;7.226;2024-01-10T00:36:36;103160.97;;;-4.42;100.00
25498;BME280;13406;53.380;7.226;2024-01-10T00:39:02;103100.13;;;-4.82;100.00
25498;BME280;13406;53.380;7.226;2024-01-10T00:41:30;103153.03;;;-4.11;100.00
25498;BME280;13406;53.380;7.226;2024-01-10T00:43:55;103236.75;;;-3.77;100.00
25498;BME280;13406;53.380;7.226;2024-01-10T00:46:21;103239.13;;;-3.97;100.00
25498;BME280;13406;53.380;7.226;2024-01-10T00:48:46;103246.59;;;-3.83;100.00
25498;BME280;13406;53.380;7.226;2024-01-10T00:51:12;103199.25;;;-4.09;100.00
25498;BME280;13406;53.380;7.226;2024-01-10T00:53:37;103246.59;;;-3.83;100.00
25498;BME280;13406;53.380;7.226;2024-01-10T00:56:06;103153.91;;;-4.40;100.00
25498;BME280;13406;53.380;7.226;2024-01-10T00:58:32;103122.66;;;-4.46;100.00
25498;BME280;13406;53.380;7.226;2024-01-10T01:00:57;103172.41;;;-4.17;100.00
25498;BME280;13406;53.380;7.226;2024-01-10T01:03:22;103063.91;;;-4.67;100.00
25498;BME280;13406;53.380;7.226;2024-01-10T01:05:48;103153.50;;;-4.26;100.00
25498;BME280;13406;53.380;7.226;2024-01-10T01:08:13;103160.47;;;-3.97;100.00
25498;BME280;13406;53.380;7.226;2024-01-10T01:10:39;103141.59;;;-4.37;100.00
25498;BME280;13406;53.380;7.226;2024-01-10T01:13:04;103193.91;;;-4.04;100.00
25498;BME280;13406;53.380;7.226;2024-01-10T01:15:30;103116.00;;;-4.58;100.00
25498;BME280;13406;53.380;7.226;2024-01-10T01:17:55;103138.91;;;-4.35;100.00
25498;BME280;13406;53.380;7.226;2024-01-10T01:20:21;103145.34;;;-4.17;100.00
25498;BME280;13406;53.380;7.226;2024-01-10T01:22:46;103119.41;;;-4.25;100.00
25498;BME280;13406;53.380;7.226;2024-01-10T01:25:11;103137.13;;;-4.05;100.00
25498;BME280;13406;53.380;7.226;2024-01-10T01:27:37;103123.44;;;-4.15;100.00
25498;BME280;13406;53.380;7.226;2024-01-10T01:30:02;102992.69;;;-4.79;100.00
25498;BME280;13406;53.380;7.226;2024-01-10T01:32:28;103114.91;;;-4.21;100.00
25498;BME280;13406;53.380;7.226;2024-01-10T01:34:54;103039.75;;;-4.19;100.00
25498;BME280;13406;53.380;7.226;2024-01-10T01:37:19;103029.09;;;-4.43;100.00
25498;BME280;13406;53.380;7.226;2024-01-10T01:39:44;103102.38;;;-4.12;100.00
25498;BME280;13406;53.380;7.226;2024-01-10T01:42:12;103109.34;;;-4.11;100.00
25498;BME280;13406;53.380;7.226;2024-01-10T01:44:38;103093.88;;;-4.20;100.00
25498;BME280;13406;53.380;7.226;2024-01-10T01:47:03;103048.69;;;-4.26;100.00
25498;BME280;13406;53.380;7.226;2024-01-10T01:49:29;103085.13;;;-4.19;100.00
25498;BME280;13406;53.380;7.226;2024-01-10T01:51:54;103083.66;;;-4.27;100.00
25498;BME280;13406;53.380;7.226;2024-01-10T01:54:20;103128.81;;;-3.91;100.00
25498;BME280;13406;53.380;7.226;2024-01-10T01:56:47;103015.41;;;-4.51;100.00
25498;BME280;13406;53.380;7.226;2024-01-10T01:59:13;103087.34;;;-4.33;100.00
25498;BME280;13406;53.380;7.226;2024-01-10T02:01:39;103068.06;;;-4.32;100.00
25498;BME280;13406;53.380;7.226;2024-01-10T02:04:05;103082.94;;;-4.04;100.00
25498;BME280;13406;53.380;7.226;2024-01-10T02:06:31;102999.13;;;-4.34;100.00
25498;BME280;13406;53.380;7.226;2024-01-10T02:08:59;103042.69;;;-4.03;100.00
25498;BME280;13406;53.380;7.226;2024-01-10T02:11:25;102966.13;;;-4.40;100.00
25498;BME280;13406;53.380;7.226;2024-01-10T02:13:52;103017.25;;;-4.00;100.00
25498;BME280;13406;53.380;7.226;2024-01-10T02:16:19;102905.47;;;-4.81;100.00
25498;BME280;13406;53.380;7.226;2024-01-10T02:18:46;103037.53;;;-3.80;100.00
25498;BME280;13406;53.380;7.226;2024-01-10T02:21:11;102849.97;;;-4.92;100.00
25498;BME280;13406;53.380;7.226;2024-01-10T02:23:36;103013.31;;;-3.87;100.00
25498;BME280;13406;53.380;7.226;2024-01-10T02:26:02;102908.56;;;-4.68;100.00
25498;BME280;13406;53.380;7.226;2024-01-10T02:28:27;102878.44;;;-4.81;100.00
25498;BME280;13406;53.380;7.226;2024-01-10T02:30:54;102916.88;;;-4.55;100.00
25498;BME280;13406;53.380;7.226;2024-01-10T02:33:20;102945.00;;;-4.34;100.00
25498;BME280;13406;53.380;7.226;2024-01-10T02:35:46;102971.00;;;-4.02;100.00
25498;BME280;13406;53.380;7.226;2024-01-10T02:38:11;103031.56;;;-3.83;100.00
25498;BME280;13406;53.380;7.226;2024-01-10T02:40:36;103022.47;;;-4.00;100.00
25498;BME280;13406;53.380;7.226;2024-01-10T02:43:02;103046.78;;;-3.95;100.00
25498;BME280;13406;53.380;7.226;2024-01-10T02:45:27;103014.47;;;-4.22;100.00
25498;BME280;13406;53.380;7.226;2024-01-10T02:47:53;103052.34;;;-4.04;100.00
25498;BME280;13406;53.380;7.226;2024-01-10T02:50:18;102938.00;;;-4.61;100.00
25498;BME280;13406;53.380;7.226;2024-01-10T02:52:44;102896.41;;;-4.70;100.00
25498;BME280;13406;53.380;7.226;2024-01-10T02:55:09;103082.56;;;-3.94;100.00
25498;BME280;13406;53.380;7.226;2024-01-10T02:57:35;103051.31;;;-4.26;100.00
25498;BME280;13406;53.380;7.226;2024-01-10T03:00:01;103084.41;;;-3.96;100.00
25498;BME280;13406;53.380;7.226;2024-01-10T03:02:26;103044.19;;;-4.23;100.00
25498;BME280;13406;53.380;7.226;2024-01-10T03:04:52;103113.28;;;-3.97;100.00
25498;BME280;13406;53.380;7.226;2024-01-10T03:07:17;103022.53;;;-4.56;100.00
25498;BME280;13406;53.380;7.226;2024-01-10T03:09:42;103111.50;;;-3.97;100.00
25498;BME280;13406;53.380;7.226;2024-01-10T03:12:09;103028.50;;;-4.51;100.00
25498;BME280;13406;53.380;7.226;2024-01-10T03:14:36;103079.56;;;-4.36;100.00
25498;BME280;13406;53.380;7.226;2024-01-10T03:17:01;102965.22;;;-4.65;100.00
25498;BME280;13406;53.380;7.226;2024-01-10T03:19:27;103048.09;;;-4.08;100.00
25498;BME280;13406;53.380;7.226;2024-01-10T03:21:53;102885.75;;;-4.92;100.00
25498;BME280;13406;53.380;7.226;2024-01-10T03:24:19;102998.13;;;-4.03;100.00
25498;BME280;13406;53.380;7.226;2024-01-10T03:26:44;102992.53;;;-3.93;100.00
25498;BME280;13406;53.380;7.226;2024-01-10T03:29:10;102958.22;;;-4.65;100.00
25498;BME280;13406;53.380;7.226;2024-01-10T03:31:38;103059.69;;;-3.89;100.00
25498;BME280;13406;53.380;7.226;2024-01-10T03:34:03;102825.25;;;-5.10;100.00
25498;BME280;13406;53.380;7.226;2024-01-10T03:36:29;102921.44;;;-4.62;100.00
25498;BME280;13406;53.380;7.226;2024-01-10T03:38:54;102963.56;;;-4.41;100.00
25498;BME280;13406;53.380;7.226;2024-01-10T03:41:20;103094.69;;;-3.90;100.00
25498;BME280;13406;53.380;7.226;2024-01-10T03:43:46;103080.84;;;-4.21;100.00
25498;BME280;13406;53.380;7.226;2024-01-10T03:46:12;102984.53;;;-4.41;100.00
25498;BME280;13406;53.380;7.226;2024-01-10T03:48:38;103027.31;;;-4.14;100.00
25498;BME280;13406;53.380;7.226;2024-01-10T03:51:13;102949.81;;;-4.48;100.00
25498;BME280;13406;53.380;7.226;2024-01-10T03:53:38;103045.97;;;-3.97;100.00
25498;BME280;13406;53.380;7.226;2024-01-10T03:56:04;103018.78;;;-4.19;100.00
25498;BME280;13406;53.380;7.226;2024-01-10T03:58:30;102971.38;;;-4.40;100.00
25498;BME280;13406;53.380;7.226;2024-01-10T04:00:56;102881.88;;;-4.52;100.00
25498;BME280;13406;53.380;7.226;2024-01-10T04:03:21;102897.22;;;-4.42;100.00
25498;BME280;13406;53.380;7.226;2024-01-10T04:05:49;102938.38;;;-4.19;100.00
25498;BME280;13406;53.380;7.226;2024-01-10T04:08:15;102902.06;;;-4.56;100.00
25498;BME280;13406;53.380;7.226;2024-01-10T04:10:40;102865.41;;;-4.56;100.00
25498;BME280;13406;53.380;7.226;2024-01-10T04:13:06;102816.94;;;-4.94;100.00
25498;BME280;13406;53.380;7.226;2024-01-10T04:15:34;102749.53;;;-5.14;100.00
25498;BME280;13406;53.380;7.226;2024-01-10T04:18:00;102939.16;;;-4.42;100.00
25498;BME280;13406;53.380;7.226;2024-01-10T04:20:25;102875.03;;;-4.57;100.00
25498;BME280;13406;53.380;7.226;2024-01-10T04:22:51;102970.25;;;-4.06;100.00
25498;BME280;13406;53.380;7.226;2024-01-10T04:25:16;102787.00;;;-4.87;100.00
25498;BME280;13406;53.380;7.226;2024-01-10T04:27:41;102938.34;;;-3.67;100.00
25498;BME280;13406;53.380;7.226;2024-01-10T04:30:07;102972.22;;;-3.86;100.00
25498;BME280;13406;53.380;7.226;2024-01-10T04:32:35;102963.28;;;-3.80;100.00
25498;BME280;13406;53.380;7.226;2024-01-10T04:35:01;102973.59;;;-4.01;100.00
25498;BME280;13406;53.380;7.226;2024-01-10T04:37:26;102910.97;;;-4.35;100.00
25498;BME280;13406;53.380;7.226;2024-01-10T04:39:51;102905.22;;;-4.46;100.00
25498;BME280;13406;53.380;7.226;2024-01-10T04:42:17;102939.69;;;-4.32;100.00
25498;BME280;13406;53.380;7.226;2024-01-10T04:44:42;102806.50;;;-4.96;100.00
25498;BME280;13406;53.380;7.226;2024-01-10T04:47:09;102971.88;;;-4.02;100.00
25498;BME280;13406;53.380;7.226;2024-01-10T04:49:34;102997.47;;;-3.83;100.00
25498;BME280;13406;53.380;7.226;2024-01-10T04:52:00;102966.94;;;-4.11;100.00
25498;BME280;13406;53.380;7.226;2024-01-10T04:54:26;102891.78;;;-4.89;100.00
25498;BME280;13406;53.380;7.226;2024-01-10T04:56:51;103027.72;;;-4.00;100.00
25498;BME280;13406;53.380;7.226;2024-01-10T04:59:17;102932.44;;;-4.77;100.00
25498;BME280;13406;53.380;7.226;2024-01-10T05:01:42;102935.84;;;-4.48;100.00
25498;BME280;13406;53.380;7.226;2024-01-10T05:04:08;103033.78;;;-4.24;100.00
25498;BME280;13406;53.380;7.226;2024-01-10T05:06:33;103036.72;;;-4.35;100.00
25498;BME280;13406;53.380;7.226;2024-01-10T05:08:58;103014.81;;;-4.61;100.00
25498;BME280;13406;53.380;7.226;2024-01-10T05:11:25;103056.97;;;-4.12;100.00
25498;BME280;13406;53.380;7.226;2024-01-10T05:13:51;103080.69;;;-4.17;100.00
25498;BME280;13406;53.380;7.226;2024-01-10T05:16:17;103064.94;;;-4.15;100.00
25498;BME280;13406;53.380;7.226;2024-01-10T05:18:42;103082.47;;;-4.17;100.00
25498;BME280;13406;53.380;7.226;2024-01-10T05:21:08;102985.56;;;-4.75;100.00
25498;BME280;13406;53.380;7.226;2024-01-10T05:23:33;102915.34;;;-5.18;100.00
25498;BME280;13406;53.380;7.226;2024-01-10T05:25:59;102957.63;;;-5.03;100.00
25498;BME280;13406;53.380;7.226;2024-01-10T05:28:24;102998.63;;;-4.73;100.00
25498;BME280;13406;53.380;7.226;2024-01-10T05:30:50;102965.59;;;-5.06;100.00
25498;BME280;13406;53.380;7.226;2024-01-10T05:33:15;103076.97;;;-4.38;100.00
25498;BME280;13406;53.380;7.226;2024-01-10T05:35:41;103004.06;;;-4.80;100.00
25498;BME280;13406;53.380;7.226;2024-01-10T05:38:07;103083.03;;;-4.36;100.00
25498;BME280;13406;53.380;7.226;2024-01-10T05:40:32;102906.50;;;-5.44;100.00
25498;BME280;13406;53.380;7.226;2024-01-10T05:42:58;103101.22;;;-4.31;100.00
25498;BME280;13406;53.380;7.226;2024-01-10T05:45:27;102994.81;;;-4.91;100.00
25498;BME280;13406;53.380;7.226;2024-01-10T05:47:53;103024.06;;;-4.77;100.00
25498;BME280;13406;53.380;7.226;2024-01-10T05:50:19;103107.19;;;-4.26;100.00
25498;BME280;13406;53.380;7.226;2024-01-10T05:52:45;103020.44;;;-4.73;100.00
25498;BME280;13406;53.380;7.226;2024-01-10T05:55:10;102929.56;;;-5.57;100.00
25498;BME280;13406;53.380;7.226;2024-01-10T05:57:36;103076.16;;;-4.68;100.00
25498;BME280;13406;53.380;7.226;2024-01-10T06:00:03;102969.34;;;-5.46;100.00
25498;BME280;13406;53.380;7.226;2024-01-10T06:02:30;103097.97;;;-4.69;100.00
25498;BME280;13406;53.380;7.226;2024-01-10T06:04:55;103094.03;;;-4.82;100.00
25498;BME280;13406;53.380;7.226;2024-01-10T06:07:21;103126.50;;;-4.58;100.00
25498;BME280;13406;53.380;7.226;2024-01-10T06:09:46;103112.06;;;-4.71;100.00
25498;BME280;13406;53.380;7.226;2024-01-10T06:12:12;103116.69;;;-4.51;100.00
25498;BME280;13406;53.380;7.226;2024-01-10T06:14:38;102990.09;;;-5.10;100.00
25498;BME280;13406;53.380;7.226;2024-01-10T06:30:10;103018.81;;;-5.07;100.00
25498;BME280;13406;53.380;7.226;2024-01-10T06:32:36;103104.88;;;-4.65;100.00
25498;BME280;13406;53.380;7.226;2024-01-10T06:35:01;103132.84;;;-4.37;100.00
25498;BME280;13406;53.380;7.226;2024-01-10T06:37:28;102946.06;;;-5.24;100.00
25498;BME280;13406;53.380;7.226;2024-01-10T06:39:53;103039.34;;;-4.93;100.00
25498;BME280;13406;53.380;7.226;2024-01-10T06:42:19;103099.22;;;-4.51;100.00
25498;BME280;13406;53.380;7.226;2024-01-10T06:44:44;103085.88;;;-4.71;100.00
25498;BME280;13406;53.380;7.226;2024-01-10T06:47:11;103102.63;;;-4.77;100.00
25498;BME280;13406;53.380;7.226;2024-01-10T06:49:36;103133.78;;;-4.69;100.00
25498;BME280;13406;53.380;7.226;2024-01-10T06:52:02;103143.25;;;-4.64;100.00
25498;BME280;13406;53.380;7.226;2024-01-10T06:54:27;103135.75;;;-4.46;100.00
25498;BME280;13406;53.380;7.226;2024-01-10T06:56:53;103159.28;;;-4.45;100.00
25498;BME280;13406;53.380;7.226;2024-01-10T06:59:18;102978.00;;;-5.75;100.00
25498;BME280;13406;53.380;7.226;2024-01-10T07:01:45;103002.50;;;-5.48;100.00
25498;BME280;13406;53.380;7.226;2024-01-10T07:04:10;103154.38;;;-4.57;100.00
25498;BME280;13406;53.380;7.226;2024-01-10T07:06:35;103158.94;;;-4.64;100.00
25498;BME280;13406;53.380;7.226;2024-01-10T07:09:01;103171.16;;;-4.63;100.00
25498;BME280;13406;53.380;7.226;2024-01-10T07:11:26;103157.38;;;-4.69;100.00
25498;BME280;13406;53.380;7.226;2024-01-10T07:13:54;103132.00;;;-4.67;100.00
25498;BME280;13406;53.380;7.226;2024-01-10T07:16:19;103119.97;;;-4.74;100.00
25498;BME280;13406;53.380;7.226;2024-01-10T07:18:45;103109.75;;;-4.84;100.00
25498;BME280;13406;53.380;7.226;2024-01-10T07:21:11;103010.03;;;-5.66;100.00
25498;BME280;13406;53.380;7.226;2024-01-10T07:23:37;103126.56;;;-4.91;100.00
25498;BME280;13406;53.380;7.226;2024-01-10T07:26:06;103167.63;;;-4.62;100.00
25498;BME280;13406;53.380;7.226;2024-01-10T07:28:31;103109.53;;;-5.06;100.00
25498;BME280;13406;53.380;7.226;2024-01-10T07:30:58;103111.41;;;-5.11;100.00
25498;BME280;13406;53.380;7.226;2024-01-10T07:33:23;103182.81;;;-4.74;100.00
25498;BME280;13406;53.380;7.226;2024-01-10T07:35:49;103164.63;;;-4.79;100.00
25498;BME280;13406;53.380;7.226;2024-01-10T07:38:14;103186.06;;;-4.65;100.00
25498;BME280;13406;53.380;7.226;2024-01-10T07:40:39;103193.91;;;-4.65;100.00
25498;BME280;13406;53.380;7.226;2024-01-10T07:43:05;103058.84;;;-5.34;100.00
25498;BME280;13406;53.380;7.226;2024-01-10T07:45:30;103120.84;;;-4.74;100.00
25498;BME280;13406;53.380;7.226;2024-01-10T07:47:56;103101.66;;;-5.06;100.00
25498;BME280;13406;53.380;7.226;2024-01-10T07:50:21;103092.38;;;-4.86;100.00
25498;BME280;13406;53.380;7.226;2024-01-10T07:52:49;103005.28;;;-5.52;100.00
25498;BME280;13406;53.380;7.226;2024-01-10T07:55:14;103184.66;;;-4.47;100.00
25498;BME280;13406;53.380;7.226;2024-01-10T07:57:41;103101.66;;;-5.06;100.00
25498;BME280;13406;53.380;7.226;2024-01-10T08:00:08;103180.06;;;-4.39;100.00
25498;BME280;13406;53.380;7.226;2024-01-10T08:02:38;103023.91;;;-5.32;100.00
25498;BME280;13406;53.380;7.226;2024-01-10T08:05:04;103174.50;;;-4.58;100.00
25498;BME280;13406;53.380;7.226;2024-01-10T08:07:37;103186.25;;;-4.41;100.00
25498;BME280;13406;53.380;7.226;2024-01-10T08:10:06;103094.69;;;-5.07;100.00
25498;BME280;13406;53.380;7.226;2024-01-10T08:12:31;103041.78;;;-5.18;100.00
25498;BME280;13406;53.380;7.226;2024-01-10T08:14:57;103134.41;;;-4.60;100.00
25498;BME280;13406;53.380;7.226;2024-01-10T08:17:22;103181.59;;;-4.32;100.00
25498;BME280;13406;53.380;7.226;2024-01-10T08:19:49;103073.47;;;-4.96;100.00
25498;BME280;13406;53.380;7.226;2024-01-10T08:22:14;103080.50;;;-4.98;100.00
25498;BME280;13406;53.380;7.226;2024-01-10T08:24:40;103208.06;;;-4.41;100.00
25498;BME280;13406;53.380;7.226;2024-01-10T08:27:06;103089.28;;;-5.01;100.00
25498;BME280;13406;53.380;7.226;2024-01-10T08:29:31;103157.44;;;-4.71;100.00
25498;BME280;13406;53.380;7.226;2024-01-10T08:31:57;103160.44;;;-4.55;100.00
25498;BME280;13406;53.380;7.226;2024-01-10T08:34:23;103169.56;;;-4.68;100.00
25498;BME280;13406;53.380;7.226;2024-01-10T08:36:49;103227.91;;;-4.32;100.00
25498;BME280;13406;53.380;7.226;2024-01-10T08:39:16;103212.94;;;-4.28;100.00
25498;BME280;13406;53.380;7.226;2024-01-10T08:41:42;103193.19;;;-4.39;100.00
25498;BME280;13406;53.380;7.226;2024-01-10T08:44:10;103199.84;;;-4.28;100.00
25498;BME280;13406;53.380;7.226;2024-01-10T08:46:35;103188.50;;;-4.29;100.00
25498;BME280;13406;53.380;7.226;2024-01-10T08:49:00;103104.81;;;-4.63;100.00
25498;BME280;13406;53.380;7.226;2024-01-10T08:51:26;103068.56;;;-4.77;100.00
25498;BME280;13406;53.380;7.226;2024-01-10T08:53:52;103077.09;;;-4.70;100.00
25498;BME280;13406;53.380;7.226;2024-01-10T08:56:18;103159.47;;;-4.21;100.00
25498;BME280;13406;53.380;7.226;2024-01-10T08:58:45;103168.63;;;-4.06;100.00
25498;BME280;13406;53.380;7.226;2024-01-10T09:01:10;103138.44;;;-3.92;100.00
25498;BME280;13406;53.380;7.226;2024-01-10T09:03:36;103103.72;;;-3.98;100.00
25498;BME280;13406;53.380;7.226;2024-01-10T09:06:03;103153.00;;;-3.81;100.00
25498;BME280;13406;53.380;7.226;2024-01-10T09:08:29;103150.78;;;-3.67;100.00
25498;BME280;13406;53.380;7.226;2024-01-10T09:10:55;103124.56;;;-3.67;100.00
25498;BME280;13406;53.380;7.226;2024-01-10T09:13:20;103041.25;;;-4.12;100.00
25498;BME280;13406;53.380;7.226;2024-01-10T09:15:46;103125.31;;;-3.64;100.00
25498;BME280;13406;53.380;7.226;2024-01-10T09:18:11;103000.00;;;-4.34;100.00
25498;BME280;13406;53.380;7.226;2024-01-10T09:20:37;103131.00;;;-3.51;100.00
25498;BME280;13406;53.380;7.226;2024-01-10T09:23:03;103149.00;;;-3.40;100.00
25498;BME280;13406;53.380;7.226;2024-01-10T09:25:28;103129.81;;;-3.42;100.00
25498;BME280;13406;53.380;7.226;2024-01-10T09:27:54;103092.06;;;-3.90;100.00
25498;BME280;13406;53.380;7.226;2024-01-10T09:30:20;103143.66;;;-3.37;100.00
25498;BME280;13406;53.380;7.226;2024-01-10T09:32:46;103053.56;;;-3.63;100.00
25498;BME280;13406;53.380;7.226;2024-01-10T09:35:11;103048.22;;;-3.59;100.00
25498;BME280;13406;53.380;7.226;2024-01-10T09:37:38;102990.91;;;-3.97;100.00
25498;BME280;13406;53.380;7.226;2024-01-10T09:40:04;103128.03;;;-3.15;100.00
25498;BME280;13406;53.380;7.226;2024-01-10T09:42:29;103138.81;;;-2.98;100.00
25498;BME280;13406;53.380;7.226;2024-01-10T09:44:57;103145.19;;;-2.81;100.00
25498;BME280;13406;53.380;7.226;2024-01-10T09:47:23;103120.94;;;-3.13;100.00
25498;BME280;13406;53.380;7.226;2024-01-10T09:49:48;103167.88;;;-2.79;100.00
25498;BME280;13406;53.380;7.226;2024-01-10T09:52:25;103130.97;;;-2.99;100.00
25498;BME280;13406;53.380;7.226;2024-01-10T09:54:56;103170.56;;;-2.80;100.00
25498;BME280;13406;53.380;7.226;2024-01-10T09:57:22;103169.19;;;-2.90;100.00
25498;BME280;13406;53.380;7.226;2024-01-10T09:59:49;103111.59;;;-3.20;100.00
25498;BME280;13406;53.380;7.226;2024-01-10T10:02:17;103189.84;;;-2.56;100.00
25498;BME280;13406;53.380;7.226;2024-01-10T10:04:53;103206.19;;;-2.48;100.00
25498;BME280;13406;53.380;7.226;2024-01-10T10:07:19;102983.88;;;-3.70;100.00
25498;BME280;13406;53.380;7.226;2024-01-10T10:12:41;103202.16;;;-2.11;100.00
25498;BME280;13406;53.380;7.226;2024-01-10T10:15:12;103100.41;;;-3.02;100.00
25498;BME280;13406;53.380;7.226;2024-01-10T10:17:39;103225.78;;;-2.33;100.00
25498;BME280;13406;53.380;7.226;2024-01-10T10:20:12;103230.94;;;-2.30;100.00
25498;BME280;13406;53.380;7.226;2024-01-10T10:22:39;103088.38;;;-3.07;100.00
25498;BME280;13406;53.380;7.226;2024-01-10T10:25:05;103167.78;;;-2.52;100.00
25498;BME280;13406;53.380;7.226;2024-01-10T10:27:30;103174.47;;;-2.43;100.00
25498;BME280;13406;53.380;7.226;2024-01-10T10:29:56;103175.00;;;-2.57;100.00
25498;BME280;13406;53.380;7.226;2024-01-10T10:32:21;103245.38;;;-1.95;100.00
25498;BME280;13406;53.380;7.226;2024-01-10T10:34:47;103201.94;;;-2.29;100.00
25498;BME280;13406;53.380;7.226;2024-01-10T10:37:12;103231.63;;;-2.25;100.00
25498;BME280;13406;53.380;7.226;2024-01-10T10:39:38;103078.00;;;-2.87;100.00
25498;BME280;13406;53.380;7.226;2024-01-10T10:42:04;103110.56;;;-2.67;100.00
25498;BME280;13406;53.380;7.226;2024-01-10T10:44:31;103261.84;;;-1.66;100.00
25498;BME280;13406;53.380;7.226;2024-01-10T10:47:04;103202.09;;;-2.08;100.00
25498;BME280;13406;53.380;7.226;2024-01-10T10:49:31;103258.28;;;-1.65;100.00
25498;BME280;13406;53.380;7.226;2024-01-10T10:51:58;103187.84;;;-2.02;100.00
25498;BME280;13406;53.380;7.226;2024-01-10T10:54:28;103275.13;;;-1.47;100.00
25498;BME280;13406;53.380;7.226;2024-01-10T10:56:57;103175.41;;;-1.99;100.00
25498;BME280;13406;53.380;7.226;2024-01-10T10:59:26;103138.16;;;-1.66;100.00
25498;BME280;13406;53.380;7.226;2024-01-10T11:01:51;103193.94;;;-1.36;100.00
25498;BME280;13406;53.380;7.226;2024-01-10T11:04:20;103187.63;;;-1.32;100.00
25498;BME280;13406;53.380;7.226;2024-01-10T11:06:46;103228.81;;;-1.09;100.00
25498;BME280;13406;53.380;7.226;2024-01-10T11:09:15;103005.72;;;-2.30;100.00
25498;BME280;13406;53.380;7.226;2024-01-10T11:12:04;103187.50;;;-1.29;100.00
25498;BME280;13406;53.380;7.226;2024-01-10T11:25:59;103094.38;;;-1.69;100.00
25498;BME280;13406;53.380;7.226;2024-01-10T11:41:33;103209.91;;;-0.57;100.00
25498;BME280;13406;53.380;7.226;2024-01-10T11:46:41;103127.25;;;-1.16;100.00
25498;BME280;13406;53.380;7.226;2024-01-10T11:49:08;103162.53;;;-0.79;100.00
25498;BME280;13406;53.380;7.226;2024-01-10T11:51:35;103219.78;;;-0.43;100.00
25498;BME280;13406;53.380;7.226;2024-01-10T11:54:02;103165.22;;;-0.60;100.00
25498;BME280;13406;53.380;7.226;2024-01-10T11:56:38;103188.72;;;-0.56;100.00
25498;BME280;13406;53.380;7.226;2024-01-10T11:59:14;103219.88;;;-0.26;100.00
25498;BME280;13406;53.380;7.226;2024-01-10T12:01:42;103209.56;;;-0.31;100.00
25498;BME280;13406;53.380;7.226;2024-01-10T12:04:08;103189.81;;;-0.41;100.00
25498;BME280;13406;53.380;7.226;2024-01-10T12:06:37;103159.16;;;-0.62;100.00
25498;BME280;13406;53.380;7.226;2024-01-10T12:09:03;103177.47;;;-0.59;100.00
25498;BME280;13406;53.380;7.226;2024-01-10T12:11:38;103173.41;;;-0.66;100.00
25498;BME280;13406;53.380;7.226;2024-01-10T12:14:04;103164.13;;;-0.75;100.00
25498;BME280;13406;53.380;7.226;2024-01-10T12:16:32;103221.81;;;-0.30;100.00
25498;BME280;13406;53.380;7.226;2024-01-10T12:18:58;103142.56;;;-0.85;100.00
25498;BME280;13406;53.380;7.226;2024-01-10T12:21:23;103218.66;;;-0.38;100.00
25498;BME280;13406;53.380;7.226;2024-01-10T12:23:49;103224.69;;;-0.34;100.00
25498;BME280;13406;53.380;7.226;2024-01-10T12:26:16;103125.88;;;-1.04;100.00
25498;BME280;13406;53.380;7.226;2024-01-10T12:28:54;103210.56;;;-0.33;100.00
25498;BME280;13406;53.380;7.226;2024-01-10T12:31:20;103155.38;;;-0.57;100.00
25498;BME280;13406;53.380;7.226;2024-01-10T12:33:48;103192.94;;;-0.33;100.00
25498;BME280;13406;53.380;7.226;2024-01-10T12:36:17;103190.69;;;-0.40;100.00
25498;BME280;13406;53.380;7.226;2024-01-10T12:38:43;103169.50;;;-0.58;100.00
25498;BME280;13406;53.380;7.226;2024-01-10T12:41:09;103120.00;;;-0.91;100.00
25498;BME280;13406;53.380;7.226;2024-01-10T12:46:12;103085.06;;;-0.56;100.00
25498;BME280;13406;53.380;7.226;2024-01-10T12:48:39;103181.09;;;0.14;100.00
25498;BME280;13406;53.380;7.226;2024-01-10T12:51:10;103118.31;;;0.03;100.00
25498;BME280;13406;53.380;7.226;2024-01-10T12:53:38;103231.25;;;1.04;100.00
25498;BME280;13406;53.380;7.226;2024-01-10T12:56:05;103120.38;;;0.50;100.00
25498;BME280;13406;53.380;7.226;2024-01-10T12:58:32;103244.88;;;1.64;100.00
25498;BME280;13406;53.380;7.226;2024-01-10T13:00:58;103231.72;;;2.12;100.00
25498;BME280;13406;53.380;7.226;2024-01-10T13:03:24;103132.47;;;0.37;100.00
25498;BME280;13406;53.380;7.226;2024-01-10T13:05:50;103264.97;;;0.45;100.00
25498;BME280;13406;53.380;7.226;2024-01-10T13:08:17;103177.16;;;-0.14;100.00
25498;BME280;13406;53.380;7.226;2024-01-10T13:10:42;103219.06;;;-0.08;100.00
25498;BME280;13406;53.380;7.226;2024-01-10T13:13:07;103178.44;;;-0.22;100.00
25498;BME280;13406;53.380;7.226;2024-01-10T13:15:34;103224.13;;;0.16;100.00
25498;BME280;13406;53.380;7.226;2024-01-10T13:17:59;103225.56;;;0.04;100.00
25498;BME280;13406;53.380;7.226;2024-01-10T13:20:25;103125.31;;;-0.72;100.00